Time;durP1;ratioP1;P1;durP2;ratioP2;P2;SDS_P1;SDS_P2;PMS_P1;PMS_P2;Temp;Humidity;BMP_temperature;BMP_pressure;BME280_temperature;BME280_humidity;BME280_pressure;Samples;Min_cycle;Max_cycle;Signal;HPM_P1;HPM_P2
2022/08/27 00:02:05;;;;;;;12.10;5.40;;;18.80;99.90;;;;;;5067598;28;20028;-86
2022/08/27 00:04:31;;;;;;;9.93;4.90;;;18.90;99.90;;;;;;5055683;28;20505;-86
2022/08/27 00:06:57;;;;;;;8.27;4.60;;;18.90;99.90;;;;;;5069366;28;20158;-86
2022/08/27 00:09:23;;;;;;;9.23;4.80;;;18.90;99.90;;;;;;5069680;28;20031;-86
2022/08/27 00:11:49;;;;;;;9.77;5.07;;;18.90;99.90;;;;;;5060580;28;20435;-86
2022/08/27 00:14:15;;;;;;;11.05;5.50;;;19.00;99.90;;;;;;5062936;28;20396;-86
2022/08/27 00:16:41;;;;;;;10.38;5.00;;;19.00;99.90;;;;;;5069050;28;20468;-86
2022/08/27 00:19:07;;;;;;;9.77;4.93;;;18.90;99.90;;;;;;5096875;22;20052;-83
2022/08/27 00:21:33;;;;;;;10.20;5.10;;;18.90;99.90;;;;;;5070472;28;20024;-83
2022/08/27 00:23:59;;;;;;;8.82;4.40;;;19.00;99.90;;;;;;5070365;28;20037;-83
2022/08/27 00:26:25;;;;;;;11.77;5.13;;;18.90;99.90;;;;;;5091926;28;20050;-83
2022/08/27 00:28:52;;;;;;;10.88;5.43;;;18.90;99.90;;;;;;5089659;28;20101;-82
2022/08/27 00:31:18;;;;;;;10.40;5.65;;;19.00;99.90;;;;;;5070126;28;20017;-83
2022/08/27 00:33:43;;;;;;;10.85;6.50;;;19.00;99.90;;;;;;5065341;28;20029;-83
2022/08/27 00:36:10;;;;;;;10.70;5.40;;;18.90;99.90;;;;;;5089514;22;20020;-81
2022/08/27 00:38:37;;;;;;;11.68;6.30;;;18.90;99.90;;;;;;5057918;28;20044;-81
2022/08/27 00:41:06;;;;;;;10.48;5.90;;;18.90;99.90;;;;;;5076575;28;20013;-81
2022/08/27 00:43:52;;;;;;;11.55;7.00;;;18.90;99.90;;;;;;5054734;28;20116;-81
2022/08/27 00:46:29;;;;;;;12.00;6.47;;;18.90;99.90;;;;;;5054741;28;20016;-80
2022/08/27 00:49:01;;;;;;;10.15;6.45;;;18.90;99.90;;;;;;5055150;28;20032;-81
2022/08/27 00:51:27;;;;;;;10.38;5.40;;;18.90;99.90;;;;;;5061118;28;20416;-81
2022/08/27 00:53:56;;;;;;;10.02;5.30;;;19.00;99.90;;;;;;5066523;28;20111;-81
2022/08/27 00:56:26;;;;;;;8.73;4.72;;;19.00;99.90;;;;;;5052690;28;20037;-81
2022/08/27 00:58:53;;;;;;;10.38;5.47;;;19.00;99.90;;;;;;5063179;28;20021;-81
2022/08/27 01:01:26;;;;;;;9.55;5.40;;;19.10;99.90;;;;;;5062065;28;20020;-81
2022/08/27 01:03:56;;;;;;;9.98;5.28;;;19.10;99.90;;;;;;5058734;28;20025;-81
2022/08/27 01:06:25;;;;;;;8.75;5.05;;;19.10;99.90;;;;;;5055845;28;20489;-81
2022/08/27 01:08:58;;;;;;;10.70;5.72;;;19.10;99.90;;;;;;5074039;28;20013;-81
2022/08/27 01:11:24;;;;;;;11.02;5.70;;;19.10;99.90;;;;;;5061703;28;20024;-81
2022/08/27 01:13:50;;;;;;;10.80;5.07;;;19.10;99.90;;;;;;5066216;28;20033;-81
2022/08/27 01:16:24;;;;;;;10.93;6.07;;;19.10;99.90;;;;;;5071753;28;20048;-80
2022/08/27 01:18:50;;;;;;;10.70;5.22;;;19.10;99.90;;;;;;5063462;28;20359;-81
2022/08/27 01:21:27;;;;;;;14.70;5.93;;;19.10;99.90;;;;;;5061175;28;20024;-81
2022/08/27 01:23:58;;;;;;;10.68;6.03;;;19.10;99.90;;;;;;5052570;28;20028;-81
2022/08/27 01:26:24;;;;;;;13.88;6.57;;;19.10;99.90;;;;;;5064265;28;20070;-81
2022/08/27 01:28:51;;;;;;;12.65;6.75;;;19.10;99.90;;;;;;5050875;28;20131;-81
2022/08/27 01:31:17;;;;;;;13.63;7.35;;;19.10;99.90;;;;;;5062853;28;20017;-81
2022/08/27 01:33:54;;;;;;;12.52;6.07;;;19.10;99.90;;;;;;5064943;28;20142;-81
2022/08/27 01:36:20;;;;;;;15.57;7.38;;;19.00;99.90;;;;;;5057037;28;20541;-80
2022/08/27 01:38:45;;;;;;;12.68;6.40;;;19.00;99.90;;;;;;5081596;28;20132;-81
2022/08/27 01:41:11;;;;;;;14.88;6.32;;;19.00;99.90;;;;;;5058240;28;20033;-80
2022/08/27 01:43:37;;;;;;;10.85;5.85;;;18.90;99.90;;;;;;5066343;28;20044;-81
2022/08/27 01:46:03;;;;;;;11.68;6.32;;;18.90;99.90;;;;;;5058993;28;20059;-81
2022/08/27 01:48:29;;;;;;;14.55;6.32;;;18.90;99.90;;;;;;5054097;28;20030;-80
2022/08/27 01:50:54;;;;;;;15.48;6.38;;;18.90;99.90;;;;;;5062172;28;20027;-80
2022/08/27 01:53:22;;;;;;;17.25;6.65;;;18.90;99.90;;;;;;5063966;28;20048;-81
2022/08/27 01:55:50;;;;;;;12.85;5.80;;;18.90;99.90;;;;;;5064738;28;20121;-81
2022/08/27 01:58:18;;;;;;;12.05;6.28;;;19.00;99.90;;;;;;5064515;28;20020;-81
2022/08/27 02:00:47;;;;;;;11.70;5.82;;;19.00;99.90;;;;;;5061489;28;20028;-81
2022/08/27 02:03:12;;;;;;;9.60;5.55;;;19.00;99.90;;;;;;5065177;28;20028;-81
2022/08/27 02:05:38;;;;;;;12.30;6.35;;;19.00;99.90;;;;;;5059317;28;20424;-80
2022/08/27 02:08:06;;;;;;;11.27;5.60;;;19.00;99.90;;;;;;5064960;28;20131;-81
2022/08/27 02:10:35;;;;;;;11.48;6.35;;;19.00;99.90;;;;;;5062059;28;20036;-80
2022/08/27 02:13:01;;;;;;;11.30;5.82;;;19.00;99.90;;;;;;5067281;28;20017;-81
2022/08/27 02:15:27;;;;;;;11.52;5.57;;;18.90;99.90;;;;;;5056108;28;20036;-81
2022/08/27 02:17:54;;;;;;;9.23;5.25;;;18.90;99.90;;;;;;5067113;28;20103;-80
2022/08/27 02:20:21;;;;;;;11.07;6.03;;;18.90;99.90;;;;;;5061819;28;20021;-81
2022/08/27 02:22:47;;;;;;;11.02;6.22;;;18.90;99.90;;;;;;5064571;28;20040;-81
2022/08/27 02:25:14;;;;;;;13.45;6.55;;;18.90;99.90;;;;;;5064793;28;20016;-81
2022/08/27 02:27:43;;;;;;;12.55;5.78;;;18.90;99.90;;;;;;5062906;28;20027;-81
2022/08/27 02:30:12;;;;;;;10.88;6.82;;;18.80;99.90;;;;;;5062831;28;20020;-81
2022/08/27 02:32:38;;;;;;;14.32;7.13;;;18.80;99.90;;;;;;5059707;28;20116;-80
2022/08/27 02:35:04;;;;;;;12.32;6.40;;;18.70;99.90;;;;;;5064913;28;20363;-81
2022/08/27 02:37:30;;;;;;;11.82;7.53;;;18.60;99.90;;;;;;5058993;28;20060;-81
2022/08/27 02:39:56;;;;;;;14.25;7.68;;;18.60;99.90;;;;;;5065347;28;20031;-81
2022/08/27 02:42:22;;;;;;;12.70;7.07;;;18.70;99.90;;;;;;5048637;28;20116;-81
2022/08/27 02:44:48;;;;;;;13.13;7.25;;;18.70;99.90;;;;;;5062871;28;20104;-81
2022/08/27 02:47:14;;;;;;;17.40;7.15;;;18.80;99.90;;;;;;5061326;28;20120;-81
2022/08/27 02:49:39;;;;;;;11.25;6.38;;;18.80;99.90;;;;;;5060982;28;20485;-81
2022/08/27 02:52:05;;;;;;;10.80;5.68;;;18.90;99.90;;;;;;5053652;28;20033;-81
2022/08/27 02:54:31;;;;;;;10.73;6.32;;;18.90;99.90;;;;;;5065369;28;20021;-81
2022/08/27 02:56:57;;;;;;;14.13;7.13;;;18.90;99.90;;;;;;5063901;28;20036;-80
2022/08/27 02:59:23;;;;;;;13.63;7.55;;;18.90;99.90;;;;;;5059706;28;20375;-81
2022/08/27 03:01:49;;;;;;;12.05;7.10;;;18.80;99.90;;;;;;5057127;28;20442;-81
2022/08/27 03:04:17;;;;;;;13.55;7.55;;;18.90;99.90;;;;;;5060077;28;20029;-81
2022/08/27 03:06:43;;;;;;;14.75;7.60;;;18.90;99.90;;;;;;5062236;28;20024;-81
2022/08/27 03:09:09;;;;;;;12.27;6.78;;;18.90;99.90;;;;;;5058955;28;20017;-81
2022/08/27 03:11:35;;;;;;;12.40;6.63;;;18.90;99.90;;;;;;5062268;28;20020;-81
2022/08/27 03:14:00;;;;;;;13.50;7.00;;;18.90;99.90;;;;;;5079666;28;20036;-80
2022/08/27 03:16:26;;;;;;;12.00;6.57;;;18.90;99.90;;;;;;5059824;28;20034;-81
2022/08/27 03:18:51;;;;;;;11.20;6.30;;;18.90;99.90;;;;;;5061716;28;20029;-81
2022/08/27 03:21:20;;;;;;;11.85;6.78;;;18.80;99.90;;;;;;5048840;28;20489;-81
2022/08/27 03:23:47;;;;;;;13.70;6.25;;;18.80;99.90;;;;;;5061541;28;20020;-81
2022/08/27 03:26:14;;;;;;;13.40;6.55;;;18.80;99.90;;;;;;5062736;28;20010;-81
2022/08/27 03:28:40;;;;;;;13.18;7.43;;;18.70;99.90;;;;;;5053048;28;20025;-81
2022/08/27 03:31:11;;;;;;;13.85;6.60;;;18.70;99.90;;;;;;5057184;28;20135;-81
2022/08/27 03:33:38;;;;;;;15.63;8.30;;;18.70;99.90;;;;;;5062391;28;20025;-81
2022/08/27 03:36:06;;;;;;;14.02;7.40;;;18.70;99.90;;;;;;5061305;28;20029;-81
2022/08/27 03:38:32;;;;;;;14.27;7.57;;;18.60;99.90;;;;;;5059775;28;20048;-81
2022/08/27 03:40:59;;;;;;;14.00;7.35;;;18.60;99.90;;;;;;5062908;28;20013;-81
2022/08/27 03:43:25;;;;;;;12.63;7.43;;;18.70;99.90;;;;;;5065736;28;20016;-81
2022/08/27 03:45:51;;;;;;;12.82;6.85;;;18.70;99.90;;;;;;5061340;28;20013;-81
2022/08/27 03:48:17;;;;;;;14.38;7.32;;;18.70;99.90;;;;;;5061776;28;20028;-81
2022/08/27 03:50:45;;;;;;;11.77;6.82;;;18.70;99.90;;;;;;5063753;28;20098;-81
2022/08/27 03:53:13;;;;;;;11.57;6.82;;;18.70;99.90;;;;;;5066440;28;20044;-81
2022/08/27 03:55:40;;;;;;;10.57;6.25;;;18.70;99.90;;;;;;5063803;28;20029;-81
2022/08/27 03:58:07;;;;;;;10.35;5.80;;;18.70;99.90;;;;;;5058998;28;20436;-81
2022/08/27 04:00:33;;;;;;;9.80;5.32;;;18.70;99.90;;;;;;5063427;28;20029;-81
2022/08/27 04:02:58;;;;;;;10.48;6.10;;;18.70;99.90;;;;;;5052845;28;20078;-81
2022/08/27 04:05:24;;;;;;;9.20;5.35;;;18.70;99.90;;;;;;5083282;22;20524;-86
2022/08/27 04:07:50;;;;;;;9.40;5.32;;;18.60;99.90;;;;;;5078132;28;20093;-87
2022/08/27 04:10:16;;;;;;;10.23;5.55;;;18.60;99.90;;;;;;5088927;28;20099;-87
2022/08/27 04:12:42;;;;;;;9.30;5.10;;;18.60;99.90;;;;;;5079631;28;20511;-86
2022/08/27 04:15:10;;;;;;;9.25;4.13;;;18.60;99.90;;;;;;5075049;28;20044;-87
2022/08/27 04:17:36;;;;;;;8.88;4.60;;;18.60;99.90;;;;;;5066027;28;20060;-87
2022/08/27 04:20:02;;;;;;;10.48;5.30;;;18.50;99.90;;;;;;5077534;22;20068;-80
2022/08/27 04:22:28;;;;;;;8.48;5.03;;;18.50;99.90;;;;;;5046558;28;20060;-81
2022/08/27 04:24:54;;;;;;;10.23;5.22;;;18.50;99.90;;;;;;5054950;28;20040;-81
2022/08/27 04:27:20;;;;;;;7.88;4.03;;;18.50;99.90;;;;;;5055536;28;20049;-80
2022/08/27 04:29:46;;;;;;;7.80;5.03;;;18.50;99.90;;;;;;5055487;28;20547;-81
2022/08/27 04:32:13;;;;;;;9.18;5.40;;;18.60;99.90;;;;;;5064562;28;20028;-81
2022/08/27 04:34:39;;;;;;;8.88;5.43;;;18.60;99.90;;;;;;5054552;28;20576;-81
2022/08/27 04:37:05;;;;;;;11.95;5.78;;;18.60;99.90;;;;;;5051376;28;20489;-81
2022/08/27 04:39:31;;;;;;;8.23;4.82;;;18.60;99.90;;;;;;5055900;28;20099;-81
2022/08/27 04:41:59;;;;;;;11.82;6.55;;;18.60;99.90;;;;;;5056556;28;20017;-81
2022/08/27 04:44:31;;;;;;;11.07;5.90;;;18.60;99.90;;;;;;5055442;28;20527;-81
2022/08/27 04:47:00;;;;;;;13.05;6.93;;;18.50;99.90;;;;;;5044980;28;20025;-80
2022/08/27 04:49:26;;;;;;;12.68;7.03;;;18.50;99.90;;;;;;5056542;28;20069;-81
2022/08/27 04:51:53;;;;;;;15.35;6.82;;;18.50;99.90;;;;;;5055538;28;20013;-81
2022/08/27 04:54:18;;;;;;;13.93;7.35;;;18.50;99.90;;;;;;5059681;28;20096;-81
2022/08/27 04:56:44;;;;;;;12.48;7.15;;;18.50;99.90;;;;;;5054414;28;20071;-81
2022/08/27 04:59:11;;;;;;;14.38;6.85;;;18.40;99.90;;;;;;5066244;28;20025;-81
2022/08/27 05:01:38;;;;;;;14.73;7.43;;;18.40;99.90;;;;;;5052081;28;20029;-80
2022/08/27 05:04:04;;;;;;;14.20;7.28;;;18.30;99.90;;;;;;5046601;28;20009;-81
2022/08/27 05:06:30;;;;;;;14.68;7.22;;;18.30;99.90;;;;;;5058720;28;20051;-81
2022/08/27 05:08:55;;;;;;;16.45;7.82;;;18.40;99.90;;;;;;5045949;28;20032;-80
2022/08/27 05:11:23;;;;;;;13.95;7.68;;;18.30;99.90;;;;;;5056327;28;20025;-80
2022/08/27 05:13:49;;;;;;;14.50;8.05;;;18.30;99.90;;;;;;5041429;28;20159;-81
2022/08/27 05:16:19;;;;;;;13.85;7.32;;;18.40;99.90;;;;;;5045577;28;20052;-81
2022/08/27 05:18:46;;;;;;;15.07;7.55;;;18.40;99.90;;;;;;5058946;28;20101;-81
2022/08/27 05:21:17;;;;;;;16.17;7.60;;;18.40;99.90;;;;;;5053817;28;20025;-80
2022/08/27 05:23:43;;;;;;;17.73;8.07;;;18.40;99.90;;;;;;5076152;28;20108;-80
2022/08/27 05:26:08;;;;;;;16.40;9.10;;;18.40;99.90;;;;;;5064166;28;20036;-81
2022/08/27 05:28:34;;;;;;;19.70;8.85;;;18.40;99.90;;;;;;5060246;28;20049;-81
2022/08/27 05:31:06;;;;;;;16.52;8.55;;;18.40;99.90;;;;;;5059041;28;20032;-80
2022/08/27 05:33:32;;;;;;;13.13;7.85;;;18.40;99.90;;;;;;5058953;28;20036;-80
2022/08/27 05:35:59;;;;;;;13.55;7.30;;;18.40;99.90;;;;;;5050270;28;20029;-81
2022/08/27 05:38:27;;;;;;;14.63;7.75;;;18.50;99.90;;;;;;5057891;28;20031;-81
2022/08/27 05:41:11;;;;;;;17.38;10.00;;;18.40;99.90;;;;;;5058426;28;20048;-81
2022/08/27 05:43:39;;;;;;;13.63;7.80;;;18.40;99.90;;;;;;5058822;28;20029;-81
2022/08/27 05:46:10;;;;;;;18.13;9.50;;;18.40;99.90;;;;;;5053037;28;20469;-81
2022/08/27 05:48:38;;;;;;;15.70;8.55;;;18.40;99.90;;;;;;5046101;28;20035;-81
2022/08/27 05:51:28;;;;;;;15.07;7.82;;;18.40;99.90;;;;;;5045119;28;20047;-81
2022/08/27 05:54:04;;;;;;;16.77;8.70;;;18.50;99.90;;;;;;5043558;28;20116;-81
2022/08/27 05:56:33;;;;;;;15.75;8.68;;;18.40;99.90;;;;;;5048662;28;20540;-81
2022/08/27 06:01:46;;;;;;;15.93;9.13;;;18.60;99.90;;;;;;5058502;28;20451;-81
2022/08/27 06:04:13;;;;;;;18.17;9.25;;;18.70;99.90;;;;;;5058418;28;20100;-81
2022/08/27 06:06:41;;;;;;;16.50;9.48;;;18.80;99.90;;;;;;5056493;28;20013;-81
2022/08/27 06:09:08;;;;;;;20.02;9.45;;;18.80;99.90;;;;;;5053433;28;20029;-81
2022/08/27 06:11:35;;;;;;;18.10;9.05;;;18.80;99.90;;;;;;5049127;28;20032;-81
2022/08/27 06:14:00;;;;;;;17.17;8.93;;;18.90;99.90;;;;;;5051576;28;20017;-81
2022/08/27 06:16:26;;;;;;;16.00;8.32;;;18.90;99.90;;;;;;5040912;28;20036;-81
2022/08/27 06:18:53;;;;;;;15.95;8.85;;;18.90;99.90;;;;;;5058807;28;20518;-81
2022/08/27 06:21:20;;;;;;;13.20;7.60;;;18.90;99.90;;;;;;5037486;28;20025;-81
2022/08/27 06:23:46;;;;;;;16.70;9.18;;;18.90;99.90;;;;;;5065688;28;20096;-81
2022/08/27 06:26:14;;;;;;;14.50;8.40;;;18.90;99.90;;;;;;5057501;28;20610;-81
2022/08/27 06:28:40;;;;;;;16.90;9.70;;;18.90;99.90;;;;;;5058205;28;20029;-81
2022/08/27 06:31:07;;;;;;;16.55;10.00;;;18.90;99.90;;;;;;5057369;28;20595;-81
2022/08/27 06:33:33;;;;;;;18.45;10.45;;;19.00;99.90;;;;;;5057870;28;20029;-81
2022/08/27 06:36:00;;;;;;;17.80;10.10;;;19.00;99.90;;;;;;5057453;28;20028;-81
2022/08/27 06:38:26;;;;;;;16.40;9.52;;;19.00;99.90;;;;;;5056770;28;20044;-81
2022/08/27 06:40:52;;;;;;;16.58;9.63;;;19.00;99.90;;;;;;5057893;28;20440;-81
2022/08/27 06:43:18;;;;;;;15.82;8.10;;;19.00;99.90;;;;;;5058360;28;20020;-81
2022/08/27 06:45:44;;;;;;;15.75;9.98;;;19.00;99.90;;;;;;5058475;28;20017;-81
2022/08/27 06:48:09;;;;;;;16.92;8.77;;;19.10;99.90;;;;;;5057565;28;20025;-81
2022/08/27 06:50:39;;;;;;;20.70;8.95;;;19.10;99.90;;;;;;5058686;28;20052;-81
2022/08/27 06:53:06;;;;;;;14.57;7.90;;;19.10;99.90;;;;;;5058425;28;20028;-81
2022/08/27 06:55:32;;;;;;;15.63;8.52;;;19.20;99.90;;;;;;5046486;28;20028;-81
2022/08/27 06:57:57;;;;;;;16.13;9.10;;;19.20;99.90;;;;;;5057692;28;20524;-81
2022/08/27 07:00:24;;;;;;;16.17;8.68;;;19.20;99.90;;;;;;5059048;28;20021;-81
2022/08/27 07:02:50;;;;;;;16.95;9.55;;;19.30;99.90;;;;;;5054967;28;20017;-81
2022/08/27 07:05:17;;;;;;;16.25;8.65;;;19.30;99.90;;;;;;5056722;28;20021;-81
2022/08/27 07:07:43;;;;;;;16.25;9.60;;;19.30;99.90;;;;;;5058587;28;20388;-81
2022/08/27 07:10:09;;;;;;;17.40;9.10;;;19.30;99.90;;;;;;5057692;28;20048;-82
2022/08/27 07:12:35;;;;;;;15.77;8.90;;;19.30;99.90;;;;;;5051529;28;20032;-81
2022/08/27 07:15:01;;;;;;;16.23;9.10;;;19.40;99.90;;;;;;5058270;28;20582;-81
2022/08/27 07:17:26;;;;;;;14.93;8.73;;;19.40;99.90;;;;;;5058021;28;20082;-81
2022/08/27 07:19:52;;;;;;;15.85;8.75;;;19.50;99.90;;;;;;5058453;28;20151;-81
2022/08/27 07:22:17;;;;;;;17.75;8.93;;;19.50;99.90;;;;;;5051193;28;20032;-81
2022/08/27 07:24:43;;;;;;;15.52;8.25;;;19.50;99.90;;;;;;5059138;28;20091;-81
2022/08/27 07:27:09;;;;;;;17.55;9.38;;;19.50;99.90;;;;;;5051857;28;20024;-81
2022/08/27 07:29:35;;;;;;;16.90;8.55;;;19.40;99.90;;;;;;5042527;28;20463;-81
2022/08/27 07:32:00;;;;;;;15.43;7.60;;;19.40;99.90;;;;;;5049120;28;20028;-81
2022/08/27 07:34:26;;;;;;;13.07;7.50;;;19.50;99.90;;;;;;5059225;28;20029;-81
2022/08/27 07:36:52;;;;;;;14.23;7.80;;;19.50;99.90;;;;;;5059319;28;20021;-81
2022/08/27 07:39:18;;;;;;;14.15;8.43;;;19.60;99.90;;;;;;5059156;28;20392;-81
2022/08/27 07:44:27;;;;;;;14.23;7.93;;;19.60;99.90;;;;;;5055772;28;20035;-81
2022/08/27 07:46:54;;;;;;;17.13;7.68;;;19.60;99.90;;;;;;5058077;28;20017;-81
2022/08/27 07:49:21;;;;;;;15.45;8.35;;;19.70;99.90;;;;;;5043612;28;20052;-81
2022/08/27 07:51:48;;;;;;;15.75;7.93;;;19.60;99.90;;;;;;5058979;28;20027;-81
2022/08/27 07:54:14;;;;;;;16.27;8.43;;;19.60;99.90;;;;;;5044383;28;20071;-81
2022/08/27 07:56:40;;;;;;;15.02;8.32;;;19.60;99.90;;;;;;5059064;28;20044;-81
2022/08/27 07:59:05;;;;;;;15.57;8.65;;;19.60;99.90;;;;;;5059624;28;20021;-81
2022/08/27 08:01:31;;;;;;;15.80;8.57;;;19.60;99.90;;;;;;5059469;28;20028;-81
2022/08/27 08:03:57;;;;;;;14.80;7.75;;;19.60;99.90;;;;;;5058687;28;20028;-81
2022/08/27 08:06:22;;;;;;;14.15;8.00;;;19.60;99.90;;;;;;5046156;28;20028;-81
2022/08/27 08:08:48;;;;;;;18.75;10.18;;;19.50;99.90;;;;;;5070073;28;20055;-81
2022/08/27 08:11:15;;;;;;;19.02;10.60;;;19.60;99.90;;;;;;5058413;28;20028;-81
2022/08/27 08:13:43;;;;;;;19.80;9.70;;;19.60;99.90;;;;;;5059314;28;20035;-81
2022/08/27 08:16:08;;;;;;;16.83;9.35;;;19.70;99.90;;;;;;5058594;28;20040;-81
2022/08/27 08:18:35;;;;;;;19.00;10.48;;;19.70;99.90;;;;;;5058714;28;20025;-81
2022/08/27 08:21:10;;;;;;;15.50;9.02;;;19.70;99.90;;;;;;5050495;28;20197;-81
2022/08/27 08:23:37;;;;;;;18.90;10.27;;;19.70;99.90;;;;;;5059273;28;20017;-81
2022/08/27 08:26:03;;;;;;;16.90;9.48;;;19.70;99.90;;;;;;5053995;28;20019;-81
2022/08/27 08:28:29;;;;;;;16.33;9.20;;;19.70;99.90;;;;;;5058469;28;20100;-81
2022/08/27 08:30:55;;;;;;;13.50;8.20;;;19.60;99.90;;;;;;5058355;28;20497;-81
2022/08/27 08:33:21;;;;;;;13.48;8.15;;;19.60;99.90;;;;;;5059965;28;20055;-81
2022/08/27 08:35:48;;;;;;;13.82;7.47;;;19.70;99.90;;;;;;5058503;28;20033;-81
2022/08/27 08:38:14;;;;;;;13.68;6.28;;;19.60;99.90;;;;;;5058173;28;20094;-81
2022/08/27 08:40:43;;;;;;;12.23;7.07;;;19.70;99.90;;;;;;5058176;28;20032;-81
2022/08/27 08:43:30;;;;;;;13.85;7.45;;;19.70;99.90;;;;;;5058952;28;20112;-80
2022/08/27 08:46:00;;;;;;;14.40;7.72;;;19.60;99.90;;;;;;5057273;28;20088;-81
2022/08/27 08:48:28;;;;;;;19.35;9.30;;;19.70;99.90;;;;;;5056343;28;20108;-81
2022/08/27 08:51:00;;;;;;;16.38;9.48;;;19.60;99.90;;;;;;5047746;28;20017;-81
2022/08/27 08:53:29;;;;;;;17.63;10.02;;;19.50;99.90;;;;;;5058648;28;20029;-81
2022/08/27 08:56:00;;;;;;;19.75;10.18;;;19.50;99.90;;;;;;5057442;28;20024;-81
2022/08/27 08:58:48;;;;;;;18.15;9.65;;;19.50;99.90;;;;;;5059005;28;20060;-81
2022/08/27 09:01:18;;;;;;;18.00;10.82;;;19.40;99.90;;;;;;5054173;28;20025;-81
2022/08/27 09:03:53;;;;;;;14.93;8.63;;;19.40;99.90;;;;;;5057772;28;20343;-81
2022/08/27 09:06:53;;;;;;;20.25;11.00;;;19.40;99.90;;;;;;5058309;28;20508;-81
2022/08/27 09:09:26;;;;;;;20.38;10.70;;;19.40;99.90;;;;;;5044605;28;20025;-81
2022/08/27 09:12:03;;;;;;;19.60;10.68;;;19.40;99.90;;;;;;5058248;28;20052;-81
2022/08/27 09:14:44;;;;;;;16.17;9.43;;;19.50;99.90;;;;;;5040618;28;20516;-81
2022/08/27 09:17:10;;;;;;;15.32;8.93;;;19.50;99.90;;;;;;5059051;28;20051;-80
2022/08/27 09:19:36;;;;;;;14.68;9.13;;;19.50;99.90;;;;;;5058803;28;20033;-81
2022/08/27 09:22:20;;;;;;;16.88;9.77;;;19.60;99.90;;;;;;5059825;28;20020;-81
2022/08/27 09:24:54;;;;;;;15.82;8.85;;;19.50;99.90;;;;;;5059472;28;20071;-81
2022/08/27 09:27:21;;;;;;;17.33;9.35;;;19.50;99.90;;;;;;5059078;28;20017;-81
2022/08/27 09:29:52;;;;;;;13.75;7.95;;;19.50;99.90;;;;;;5044113;28;20021;-80
2022/08/27 09:32:27;;;;;;;13.00;7.32;;;19.50;99.90;;;;;;5053727;28;20021;-80
2022/08/27 09:34:57;;;;;;;11.63;6.90;;;19.60;99.90;;;;;;5046441;28;20021;-81
2022/08/27 09:37:40;;;;;;;11.02;6.13;;;19.60;99.90;;;;;;5054016;28;20021;-81
2022/08/27 09:40:30;;;;;;;11.10;5.95;;;19.60;99.90;;;;;;5045697;28;20021;-81
2022/08/27 09:43:08;;;;;;;9.73;5.53;;;19.60;99.90;;;;;;5046591;28;20074;-81
2022/08/27 09:45:34;;;;;;;7.53;4.38;;;19.50;99.90;;;;;;5054039;28;20083;-81
2022/08/27 09:48:18;;;;;;;7.45;3.80;;;19.50;99.90;;;;;;5057575;28;20009;-80
2022/08/27 09:50:51;;;;;;;5.18;3.17;;;19.60;99.90;;;;;;5045474;28;20103;-80
2022/08/27 09:53:20;;;;;;;5.70;3.03;;;19.60;99.90;;;;;;5060665;28;20497;-80
2022/08/27 09:55:55;;;;;;;5.10;2.67;;;19.70;99.90;;;;;;5059815;28;20028;-80
2022/08/27 09:58:28;;;;;;;4.47;2.47;;;19.70;99.90;;;;;;5059173;28;20037;-80
2022/08/27 10:01:16;;;;;;;6.13;2.97;;;19.80;99.90;;;;;;5054781;28;20112;-80
2022/08/27 10:03:42;;;;;;;6.05;3.42;;;19.90;99.90;;;;;;5047041;28;20032;-80
2022/08/27 10:06:09;;;;;;;6.43;3.55;;;19.90;99.90;;;;;;5058255;28;20037;-80
2022/08/27 10:08:49;;;;;;;6.07;3.70;;;20.00;99.90;;;;;;5059769;28;20025;-80
2022/08/27 10:11:24;;;;;;;5.97;3.88;;;20.00;99.90;;;;;;5055080;28;20032;-80
2022/08/27 10:14:00;;;;;;;6.32;3.70;;;20.00;99.90;;;;;;5041431;28;20017;-80
2022/08/27 10:17:20;;;;;;;8.00;4.18;;;20.00;99.90;;;;;;5058303;28;20063;-80
2022/08/27 10:20:14;;;;;;;6.00;3.63;;;20.10;99.90;;;;;;5028937;22;20045;-86
2022/08/27 10:23:09;;;;;;;7.85;3.25;;;20.20;99.90;;;;;;5070576;28;20025;-83
2022/08/27 10:25:44;;;;;;;5.03;2.90;;;20.20;99.90;;;;;;5005089;28;20029;-83
2022/08/27 10:28:21;;;;;;;6.40;3.40;;;20.20;99.90;;;;;;5071458;28;20481;-84
2022/08/27 10:31:11;;;;;;;6.25;3.70;;;20.30;99.90;;;;;;5070490;28;20017;-83
2022/08/27 10:33:51;;;;;;;5.85;3.45;;;20.30;99.90;;;;;;5070005;28;20035;-83
2022/08/27 10:36:29;;;;;;;6.63;3.50;;;20.40;99.90;;;;;;5087157;28;20382;-84
2022/08/27 10:39:29;;;;;;;6.03;3.33;;;20.40;99.90;;;;;;5063546;28;20025;-83
2022/08/27 10:42:19;;;;;;;6.43;3.70;;;20.40;99.90;;;;;;5015988;28;20403;-84
2022/08/27 10:45:03;;;;;;;7.38;4.18;;;20.40;99.90;;;;;;5071366;28;20527;-83
2022/08/27 10:47:59;;;;;;;7.88;4.80;;;20.40;99.90;;;;;;5086702;28;20033;-84
2022/08/27 10:50:34;;;;;;;9.32;4.82;;;20.40;99.90;;;;;;5060306;28;20037;-84
2022/08/27 10:53:16;;;;;;;8.38;4.97;;;20.30;99.90;;;;;;5070098;28;20440;-83
2022/08/27 10:55:50;;;;;;;9.48;5.03;;;20.30;99.90;;;;;;5069040;28;20445;-83
2022/08/27 10:58:38;;;;;;;9.23;4.95;;;20.30;99.90;;;;;;5067676;28;20036;-83
2022/08/27 11:01:16;;;;;;;9.82;5.65;;;20.20;99.90;;;;;;5069246;28;20017;-84
2022/08/27 11:04:01;;;;;;;9.40;5.20;;;20.10;99.90;;;;;;5070667;28;20025;-83
2022/08/27 11:06:35;;;;;;;9.82;5.88;;;20.10;99.90;;;;;;5084680;28;20024;-84
2022/08/27 11:09:16;;;;;;;11.05;5.38;;;20.10;99.90;;;;;;5069969;28;20032;-84
2022/08/27 11:11:42;;;;;;;9.40;5.68;;;20.10;99.90;;;;;;5069067;28;20024;-84
2022/08/27 11:14:37;;;;;;;8.88;5.88;;;20.20;99.90;;;;;;5071600;28;20024;-84
2022/08/27 11:17:14;;;;;;;8.75;4.82;;;20.30;99.90;;;;;;5061377;28;20523;-84
2022/08/27 11:19:51;;;;;;;8.23;5.45;;;20.30;99.90;;;;;;5069562;28;20036;-84
2022/08/27 11:22:33;;;;;;;9.18;6.20;;;20.30;99.90;;;;;;5073527;28;20436;-84
2022/08/27 11:25:08;;;;;;;9.50;6.05;;;20.30;99.90;;;;;;5071516;28;20413;-84
2022/08/27 11:27:35;;;;;;;10.90;6.13;;;20.30;99.90;;;;;;5086456;28;20381;-84
2022/08/27 11:30:24;;;;;;;8.93;5.30;;;20.30;99.90;;;;;;5068844;28;20020;-84
2022/08/27 11:33:00;;;;;;;9.15;5.70;;;20.30;99.90;;;;;;5066259;28;20161;-84
2022/08/27 11:36:07;;;;;;;11.27;5.50;;;20.30;99.90;;;;;;5070861;28;20056;-84
2022/08/27 11:38:44;;;;;;;10.30;6.65;;;20.30;99.90;;;;;;5044652;28;20036;-84
2022/08/27 11:41:48;;;;;;;11.00;6.20;;;20.20;99.90;;;;;;5069555;28;20105;-84
2022/08/27 11:44:16;;;;;;;8.75;5.20;;;20.20;99.90;;;;;;5061778;28;20075;-84
2022/08/27 11:46:48;;;;;;;8.90;5.95;;;20.10;99.90;;;;;;5069236;28;20024;-84
2022/08/27 11:49:28;;;;;;;12.82;6.57;;;20.20;99.90;;;;;;5069542;28;20040;-84
2022/08/27 11:52:06;;;;;;;10.93;6.53;;;20.20;99.90;;;;;;5084153;28;20017;-84
2022/08/27 11:54:47;;;;;;;10.88;6.47;;;20.20;99.90;;;;;;5070713;28;20087;-85
2022/08/27 11:57:28;;;;;;;10.93;6.80;;;20.30;99.90;;;;;;5060537;28;20377;-84
2022/08/27 11:59:53;;;;;;;12.10;5.88;;;20.20;99.90;;;;;;5066243;28;20052;-83
2022/08/27 12:02:25;;;;;;;10.52;5.53;;;20.20;99.90;;;;;;5086390;28;20043;-83
2022/08/27 12:04:54;;;;;;;10.35;5.95;;;20.20;99.90;;;;;;5065660;28;20020;-84
2022/08/27 12:07:21;;;;;;;12.43;7.03;;;20.20;99.90;;;;;;5069886;28;20016;-84
2022/08/27 12:09:46;;;;;;;10.52;6.25;;;20.20;99.90;;;;;;5086048;28;20055;-83
2022/08/27 12:12:23;;;;;;;13.00;6.65;;;20.20;99.90;;;;;;5086259;28;20046;-84
2022/08/27 12:15:03;;;;;;;11.05;6.28;;;20.30;99.90;;;;;;5068939;28;20029;-84
2022/08/27 12:18:09;;;;;;;11.88;7.15;;;20.30;99.90;;;;;;5070539;28;20067;-84
2022/08/27 12:21:05;;;;;;;11.95;6.93;;;20.30;99.90;;;;;;5044088;28;20162;-84
2022/08/27 12:23:48;;;;;;;12.13;6.95;;;20.40;99.90;;;;;;5068163;28;20024;-84
2022/08/27 12:26:36;;;;;;;12.57;6.88;;;20.50;99.90;;;;;;5085064;28;20366;-84
2022/08/27 12:29:23;;;;;;;12.75;6.47;;;20.50;99.90;;;;;;5063702;28;20485;-84
2022/08/27 12:31:53;;;;;;;12.25;7.15;;;20.60;99.90;;;;;;5069429;28;20594;-84
2022/08/27 12:34:23;;;;;;;12.68;6.50;;;20.60;99.90;;;;;;5093789;28;20059;-84
2022/08/27 12:36:51;;;;;;;13.10;7.22;;;20.70;99.90;;;;;;5065033;28;20036;-84
2022/08/27 12:39:20;;;;;;;10.88;6.82;;;20.70;99.90;;;;;;5065107;28;20107;-83
2022/08/27 12:41:48;;;;;;;14.70;6.50;;;20.60;99.90;;;;;;5068899;28;20021;-83
2022/08/27 12:44:30;;;;;;;12.25;6.43;;;20.70;99.90;;;;;;5069436;28;20051;-83
2022/08/27 12:47:06;;;;;;;13.23;6.97;;;20.70;99.90;;;;;;5082800;28;20024;-83
2022/08/27 12:49:44;;;;;;;11.00;6.90;;;20.80;99.90;;;;;;5070357;28;20420;-84
2022/08/27 12:52:40;;;;;;;12.93;7.53;;;20.80;99.90;;;;;;5085797;28;20497;-83
2022/08/27 12:55:24;;;;;;;13.80;7.40;;;20.80;99.90;;;;;;5064375;28;20025;-83
2022/08/27 12:58:16;;;;;;;10.93;6.65;;;20.80;99.90;;;;;;5063648;28;20033;-83
2022/08/27 13:00:55;;;;;;;13.63;7.05;;;20.80;99.90;;;;;;5084247;28;20036;-83
2022/08/27 13:03:27;;;;;;;10.90;6.80;;;20.90;99.90;;;;;;5069388;28;20024;-84